createdAt,value
2023-03-06T00:02:48.867Z,327.00
2023-03-06T00:06:49.025Z,328.00
2023-03-06T00:10:49.183Z,326.00
2023-03-06T00:14:49.337Z,322.00
2023-03-06T00:18:49.518Z,328.00
2023-03-06T00:22:49.701Z,324.00
2023-03-06T00:26:49.839Z,323.00
2023-03-06T00:30:50.035Z,321.00
2023-03-06T00:34:50.232Z,321.00
2023-03-06T00:38:50.580Z,326.00
2023-03-06T00:42:50.406Z,324.00
2023-03-06T00:46:50.416Z,326.00
2023-03-06T00:50:50.344Z,323.00
2023-03-06T00:54:50.323Z,318.00
2023-03-06T00:58:50.253Z,319.00
2023-03-06T01:02:50.249Z,325.00
2023-03-06T01:06:50.211Z,324.00
2023-03-06T01:10:50.155Z,329.00
2023-03-06T01:14:50.113Z,328.00
2023-03-06T01:18:50.092Z,327.00
2023-03-06T01:22:50.209Z,330.00
2023-03-06T01:26:50.440Z,325.00
2023-03-06T01:30:50.639Z,324.00
2023-03-06T01:34:50.879Z,324.00
2023-03-06T01:38:50.828Z,321.00
2023-03-06T01:42:50.790Z,319.00
2023-03-06T01:46:50.744Z,315.00
2023-03-06T01:50:50.704Z,313.00
2023-03-06T01:54:50.692Z,311.00
2023-03-06T01:58:50.644Z,313.00
2023-03-06T02:02:50.588Z,315.00
2023-03-06T02:06:50.536Z,315.00
2023-03-06T02:11:44.711Z,307.00
2023-03-06T02:15:44.570Z,307.00
2023-03-06T02:19:44.572Z,310.00
2023-03-06T02:23:44.497Z,305.00
2023-03-06T02:27:44.529Z,306.00
2023-03-06T02:31:44.468Z,309.00
2023-03-06T02:35:44.424Z,308.00
2023-03-06T02:39:44.354Z,309.00
2023-03-06T02:43:44.318Z,310.00
2023-03-06T02:47:44.336Z,309.00
2023-03-06T02:51:44.436Z,310.00
2023-03-06T02:55:44.438Z,309.00
2023-03-06T02:59:44.345Z,314.00
2023-03-06T03:03:44.340Z,317.00
2023-03-06T03:07:44.284Z,318.00
2023-03-06T03:11:44.270Z,316.00
2023-03-06T03:15:44.266Z,316.00
2023-03-06T03:19:44.202Z,314.00
2023-03-06T03:23:44.149Z,311.00
2023-03-06T03:27:44.120Z,309.00
2023-03-06T03:31:44.104Z,312.00
2023-03-06T03:35:44.305Z,311.00
2023-03-06T03:39:44.470Z,310.00
2023-03-06T03:43:44.695Z,315.00
2023-03-06T03:47:44.943Z,311.00
2023-03-06T03:51:45.111Z,308.00
2023-03-06T03:55:45.280Z,310.00
2023-03-06T03:59:45.472Z,316.00
2023-03-06T04:03:45.428Z,311.00
2023-03-06T04:07:45.396Z,311.00
2023-03-06T04:11:45.360Z,311.00
2023-03-06T04:15:45.316Z,307.00
2023-03-06T04:19:45.318Z,307.00
2023-03-06T04:23:45.216Z,310.00
2023-03-06T04:27:45.196Z,310.00
2023-03-06T04:31:45.213Z,308.00
2023-03-06T04:35:45.210Z,306.00
2023-03-06T04:39:45.097Z,307.00
2023-03-06T04:43:45.229Z,311.00
2023-03-06T04:47:45.192Z,307.00
2023-03-06T04:51:45.168Z,307.00
2023-03-06T04:55:45.139Z,305.00
2023-03-06T04:59:45.078Z,307.00
2023-03-06T05:03:45.032Z,312.00
2023-03-06T05:07:45.017Z,324.00
2023-03-06T05:11:44.935Z,328.00
2023-03-06T05:15:45.039Z,337.00
2023-03-06T05:19:44.916Z,343.00
2023-03-06T05:23:44.848Z,348.00
2023-03-06T05:27:44.843Z,352.00
2023-03-06T05:31:44.829Z,358.00
2023-03-06T05:35:44.824Z,360.00
2023-03-06T05:39:44.714Z,357.00
2023-03-06T05:43:44.685Z,357.00
2023-03-06T05:47:44.666Z,356.00
2023-03-06T05:51:44.604Z,358.00
2023-03-06T05:55:44.611Z,358.00
2023-03-06T05:59:46.324Z,356.00
2023-03-06T06:03:44.530Z,358.00
2023-03-06T06:07:44.434Z,357.00
2023-03-06T06:11:44.418Z,358.00
2023-03-06T06:15:44.646Z,357.00
2023-03-06T06:19:44.690Z,356.00
2023-03-06T06:23:44.924Z,358.00
2023-03-06T06:27:45.045Z,358.00
2023-03-06T06:31:45.210Z,358.00
2023-03-06T06:35:45.459Z,383.00
2023-03-06T06:39:45.427Z,481.00
2023-03-06T06:43:45.465Z,558.00
2023-03-06T06:47:45.640Z,662.00
2023-03-06T06:51:45.621Z,680.00
2023-03-06T06:55:45.642Z,711.00
2023-03-06T06:59:45.770Z,736.00
2023-03-06T07:03:46.019Z,769.00
2023-03-06T07:07:45.977Z,783.00
2023-03-06T07:11:45.992Z,830.00
2023-03-06T07:15:45.998Z,854.00
2023-03-06T07:19:46.027Z,866.00
2023-03-06T07:23:45.474Z,885.00
2023-03-06T07:27:51.090Z,896.00
2023-03-06T07:31:46.383Z,907.00
2023-03-06T07:35:45.508Z,926.00
2023-03-06T07:39:45.301Z,937.00
2023-03-06T07:43:45.278Z,932.00
2023-03-06T07:47:45.238Z,923.00
2023-03-06T07:51:45.218Z,918.00
2023-03-06T07:55:45.507Z,906.00
2023-03-06T07:59:45.345Z,899.00
2023-03-06T08:03:45.585Z,896.00
2023-03-06T08:07:45.340Z,887.00
2023-03-06T08:11:45.312Z,877.00
2023-03-06T08:15:45.252Z,870.00
2023-03-06T08:19:45.204Z,863.00
2023-03-06T08:23:45.183Z,859.00
2023-03-06T08:27:45.497Z,842.00
2023-03-06T08:31:45.561Z,839.00
2023-03-06T08:35:45.115Z,616.00
2023-03-06T08:39:45.508Z,824.00
2023-03-06T08:43:45.545Z,828.00
2023-03-06T08:47:44.984Z,855.00
2023-03-06T08:51:45.002Z,865.00
2023-03-06T08:55:44.922Z,875.00
2023-03-06T08:59:45.008Z,800.00
2023-03-06T09:03:44.844Z,777.00
2023-03-06T09:07:44.980Z,738.00
2023-03-06T09:11:44.815Z,732.00
2023-03-06T09:15:44.726Z,754.00
2023-03-06T09:19:44.753Z,775.00
2023-03-06T09:23:45.091Z,800.00
2023-03-06T09:27:44.640Z,588.00
2023-03-06T09:31:44.615Z,473.00
2023-03-06T09:35:44.574Z,428.00
2023-03-06T09:39:44.548Z,405.00
2023-03-06T09:43:44.572Z,417.00
2023-03-06T09:47:44.474Z,474.00
2023-03-06T09:51:44.428Z,516.00
2023-03-06T09:55:44.375Z,525.00
2023-03-06T09:59:44.402Z,559.00
2023-03-06T10:03:45.052Z,599.00
2023-03-06T10:07:45.027Z,635.00
2023-03-06T10:11:45.051Z,685.00
2023-03-06T10:15:45.553Z,722.00
2023-03-06T10:19:45.097Z,751.00
2023-03-06T10:23:45.118Z,778.00
2023-03-06T10:27:45.529Z,796.00
2023-03-06T10:31:45.518Z,829.00
2023-03-06T10:35:45.661Z,851.00
2023-03-06T10:39:45.150Z,853.00
2023-03-06T10:43:45.579Z,847.00
2023-03-06T10:47:45.117Z,856.00
2023-03-06T10:51:45.041Z,856.00
2023-03-06T10:55:44.992Z,856.00
2023-03-06T10:59:44.980Z,858.00
2023-03-06T11:03:45.078Z,854.00
2023-03-06T11:07:44.873Z,861.00
2023-03-06T11:16:03.856Z,870.00
2023-03-06T11:20:04.058Z,884.00
2023-03-06T11:24:03.693Z,903.00
2023-03-06T11:28:03.710Z,624.00
2023-03-06T11:32:03.696Z,586.00
2023-03-06T11:36:03.649Z,558.00
2023-03-06T11:40:03.583Z,535.00
2023-03-06T11:44:03.557Z,563.00
2023-03-06T11:48:03.562Z,589.00
2023-03-06T11:52:03.459Z,606.00
2023-03-06T11:56:03.436Z,634.00
2023-03-06T12:00:03.447Z,636.00
2023-03-06T12:04:03.335Z,662.00
2023-03-06T12:08:03.424Z,697.00
2023-03-06T12:12:03.390Z,796.00
2023-03-06T12:16:03.346Z,765.00
2023-03-06T12:20:03.567Z,770.00
2023-03-06T12:24:03.709Z,748.00
2023-03-06T12:28:03.694Z,703.00
2023-03-06T12:32:03.764Z,672.00
2023-03-06T12:36:03.664Z,643.00
2023-03-06T12:40:03.722Z,618.00
2023-03-06T12:44:03.800Z,580.00
2023-03-06T12:48:03.867Z,559.00
2023-03-06T12:52:03.955Z,544.00
2023-03-06T12:56:04.099Z,503.00
2023-03-06T13:00:04.222Z,485.00
2023-03-06T13:04:04.265Z,512.00
2023-03-06T13:08:04.323Z,624.00
2023-03-06T13:12:04.300Z,666.00
2023-03-06T13:16:04.235Z,717.00
2023-03-06T13:20:04.177Z,738.00
2023-03-06T13:24:04.183Z,748.00
2023-03-06T13:28:04.152Z,688.00
2023-03-06T13:32:04.173Z,670.00
2023-03-06T13:36:04.055Z,630.00
2023-03-06T13:40:04.031Z,573.00
2023-03-06T13:44:04.005Z,547.00
2023-03-06T13:48:27.299Z,494.00
2023-03-06T13:52:04.915Z,509.00
2023-03-06T13:56:03.879Z,516.00
2023-03-06T14:00:09.193Z,526.00
2023-03-06T14:04:04.797Z,528.00
2023-03-06T14:08:03.782Z,479.00
2023-03-06T14:12:03.776Z,475.00
2023-03-06T14:16:03.883Z,537.00
2023-03-06T14:20:04.053Z,619.00
2023-03-06T14:24:04.121Z,632.00
2023-03-06T14:28:13.789Z,647.00
2023-03-06T14:32:05.164Z,664.00
2023-03-06T14:36:04.069Z,679.00
2023-03-06T14:40:04.213Z,668.00
2023-03-06T14:44:04.654Z,683.00
2023-03-06T14:48:04.586Z,717.00
2023-03-06T14:52:04.782Z,709.00
2023-03-06T14:56:06.052Z,685.00
2023-03-06T15:00:05.147Z,652.00
2023-03-06T15:04:05.171Z,631.00
2023-03-06T15:08:05.101Z,596.00
2023-03-06T15:12:05.048Z,571.00
2023-03-06T15:16:05.101Z,555.00
2023-03-06T15:20:04.969Z,537.00
2023-03-06T15:24:04.952Z,519.00
2023-03-06T15:28:04.879Z,504.00
2023-03-06T15:32:04.897Z,498.00
2023-03-06T15:36:04.873Z,499.00
2023-03-06T15:40:04.815Z,499.00
2023-03-06T15:44:04.742Z,496.00
2023-03-06T15:48:04.771Z,492.00
2023-03-06T15:52:04.723Z,492.00
2023-03-06T15:56:04.701Z,490.00
2023-03-06T16:00:04.977Z,486.00
2023-03-06T16:04:04.666Z,482.00
2023-03-06T16:08:04.535Z,481.00
2023-03-06T16:12:04.623Z,478.00
2023-03-06T16:16:04.478Z,477.00
2023-03-06T16:20:04.456Z,471.00
2023-03-06T16:24:04.476Z,470.00
2023-03-06T16:28:04.497Z,465.00
2023-03-06T16:32:04.587Z,466.00
2023-03-06T16:36:04.493Z,463.00
2023-03-06T16:40:04.527Z,457.00
2023-03-06T16:44:04.547Z,459.00
2023-03-06T16:48:04.647Z,458.00
2023-03-06T16:52:04.662Z,453.00
2023-03-06T16:56:04.700Z,455.00
2023-03-06T17:00:04.763Z,455.00
2023-03-06T17:04:04.803Z,455.00
2023-03-06T17:08:04.959Z,449.00
2023-03-06T17:12:04.918Z,445.00
2023-03-06T17:16:05.068Z,446.00
2023-03-06T17:20:05.157Z,445.00
2023-03-06T17:24:05.238Z,443.00
2023-03-06T17:28:05.361Z,444.00
2023-03-06T17:32:05.503Z,438.00
2023-03-06T17:36:05.521Z,437.00
2023-03-06T17:40:05.610Z,437.00
2023-03-06T17:44:05.744Z,435.00
2023-03-06T17:48:05.874Z,430.00
2023-03-06T17:52:05.996Z,425.00
2023-03-06T17:56:06.133Z,424.00
2023-03-06T18:00:06.320Z,424.00
2023-03-06T18:04:06.421Z,424.00
2023-03-06T18:08:06.615Z,422.00
2023-03-06T18:12:06.750Z,423.00
2023-03-06T18:16:06.950Z,427.00
2023-03-06T18:20:07.062Z,428.00
2023-03-06T18:24:07.174Z,425.00
2023-03-06T18:28:07.364Z,422.00
2023-03-06T18:32:07.658Z,418.00
2023-03-06T18:36:07.780Z,424.00
2023-03-06T18:40:07.966Z,426.00
2023-03-06T18:44:08.191Z,430.00
2023-03-06T18:48:08.357Z,429.00
2023-03-06T18:52:08.517Z,426.00
2023-03-06T18:56:08.780Z,422.00
2023-03-06T19:00:08.917Z,430.00
2023-03-06T19:04:09.199Z,430.00
2023-03-06T19:08:09.135Z,430.00
2023-03-06T19:12:09.060Z,424.00
2023-03-06T19:16:09.101Z,416.00
2023-03-06T19:20:09.005Z,413.00
2023-03-06T19:24:08.997Z,413.00
2023-03-06T19:28:08.905Z,408.00
2023-03-06T19:32:09.122Z,405.00
2023-03-06T19:36:08.815Z,407.00
2023-03-06T19:40:08.805Z,403.00
2023-03-06T19:44:08.780Z,401.00
2023-03-06T19:48:08.748Z,401.00
2023-03-06T19:52:08.883Z,403.00
2023-03-06T19:56:08.824Z,405.00
2023-03-06T20:00:08.837Z,404.00
2023-03-06T20:04:08.802Z,402.00
2023-03-06T20:08:08.672Z,402.00
2023-03-06T20:12:08.691Z,402.00
2023-03-06T20:16:08.639Z,405.00
2023-03-06T20:20:08.580Z,404.00
2023-03-06T20:24:08.576Z,402.00
2023-03-06T20:28:08.494Z,400.00
2023-03-06T20:32:08.553Z,401.00
2023-03-06T20:36:08.459Z,400.00
2023-03-06T20:40:08.548Z,398.00
2023-03-06T20:44:08.716Z,396.00
2023-03-06T20:48:08.943Z,396.00
2023-03-06T20:52:09.305Z,391.00
2023-03-06T20:56:09.097Z,397.00
2023-03-06T21:00:09.032Z,401.00
2023-03-06T21:04:08.966Z,400.00
2023-03-06T21:08:08.971Z,398.00
2023-03-06T21:12:08.942Z,399.00
2023-03-06T21:16:08.887Z,394.00
2023-03-06T21:20:08.848Z,393.00
2023-03-06T21:24:08.823Z,392.00
2023-03-06T21:28:08.810Z,394.00
2023-03-06T21:32:08.769Z,392.00
2023-03-06T21:36:08.704Z,393.00
2023-03-06T21:40:08.637Z,389.00
2023-03-06T21:44:08.652Z,393.00
2023-03-06T21:48:08.585Z,392.00
2023-03-06T21:52:08.577Z,393.00
2023-03-06T21:56:08.529Z,394.00
2023-03-06T22:00:08.812Z,393.00
2023-03-06T22:04:08.477Z,397.00
2023-03-06T22:08:08.387Z,392.00
2023-03-06T22:12:08.401Z,392.00
2023-03-06T22:16:08.408Z,396.00
2023-03-06T22:24:25.879Z,385.00
2023-03-06T22:28:25.847Z,382.00
2023-03-06T22:32:25.988Z,379.00
2023-03-06T22:36:25.773Z,379.00
2023-03-06T22:40:25.739Z,382.00
2023-03-06T22:44:25.705Z,379.00
2023-03-06T22:48:25.625Z,382.00
2023-03-06T22:52:25.578Z,382.00
2023-03-06T22:56:25.566Z,380.00
2023-03-06T23:00:25.499Z,378.00
2023-03-06T23:04:25.589Z,383.00
2023-03-06T23:08:25.461Z,384.00
2023-03-06T23:12:25.415Z,381.00
2023-03-06T23:16:25.425Z,379.00
2023-03-06T23:20:25.334Z,382.00
2023-03-06T23:24:25.316Z,381.00
2023-03-06T23:28:25.286Z,381.00
2023-03-06T23:32:25.268Z,379.00
2023-03-06T23:36:25.195Z,378.00
2023-03-06T23:40:25.164Z,378.00
2023-03-06T23:44:25.109Z,377.00
2023-03-06T23:48:25.051Z,376.00
2023-03-06T23:52:25.055Z,375.00
2023-03-06T23:56:25.075Z,377.00
